Time;durP1;ratioP1;P1;durP2;ratioP2;P2;SDS_P1;SDS_P2;PMS_P1;PMS_P2;Temp;Humidity;BMP_temperature;BMP_pressure;BME280_temperature;BME280_humidity;BME280_pressure;Samples;Min_cycle;Max_cycle;Signal;HPM_P1;HPM_P2
2021/12/04 00:00:44;;;;;;;7.72;4.97;;;;;;;7.61;46.80;99334.30;2334885;84;25704;-75
2021/12/04 00:03:59;;;;;;;8.60;5.40;;;;;;;7.56;46.67;99328.61;2328858;84;25726;-75
2021/12/04 00:07:22;;;;;;;6.17;4.42;;;;;;;7.53;46.53;99331.14;2330442;84;25691;-72
2021/12/04 00:10:47;;;;;;;7.22;5.12;;;;;;;7.51;46.47;99327.63;2338149;84;26002;-71
2021/12/04 00:14:10;;;;;;;6.83;5.15;;;;;;;7.49;46.26;99330.64;2338572;84;25682;-76
2021/12/04 00:17:31;;;;;;;9.73;5.80;;;;;;;7.46;46.16;99331.88;2338641;83;25709;-73
2021/12/04 00:20:52;;;;;;;7.90;5.65;;;;;;;7.44;46.08;99338.73;2339096;84;25640;-72
2021/12/04 00:24:17;;;;;;;7.80;5.47;;;;;;;7.40;46.00;99332.17;2339135;83;25718;-71
2021/12/04 00:27:37;;;;;;;7.10;4.47;;;;;;;7.38;45.93;99332.13;2338574;83;25619;-73
2021/12/04 00:31:05;;;;;;;7.70;5.33;;;;;;;7.35;45.82;99326.88;2338809;83;25698;-72
2021/12/04 00:34:26;;;;;;;7.75;5.45;;;;;;;7.31;45.77;99316.88;2336300;84;25615;-72
2021/12/04 00:52:17;;;;;;;9.63;5.75;;;;;;;7.21;45.41;99316.24;2217847;89;25722;-73
2021/12/04 00:55:39;;;;;;;6.97;5.33;;;;;;;7.20;45.39;99317.52;2215661;89;25725;-72
2021/12/04 00:59:11;;;;;;;9.30;5.47;;;;;;;7.19;45.33;99309.27;2245785;87;25768;-72
2021/12/04 01:02:34;;;;;;;10.65;5.28;;;;;;;7.17;45.35;99306.66;2235573;87;26463;-73
2021/12/04 01:05:55;;;;;;;7.90;4.90;;;;;;;7.15;45.34;99301.86;2256919;86;25722;-72
2021/12/04 01:09:19;;;;;;;9.80;5.72;;;;;;;7.16;45.28;99299.74;2256556;87;25802;-71
2021/12/04 01:12:40;;;;;;;9.28;5.67;;;;;;;7.15;45.29;99290.63;2256890;87;25700;-72
2021/12/04 01:16:02;;;;;;;9.48;5.58;;;;;;;7.14;45.27;99291.05;2254167;87;25743;-71
2021/12/04 01:19:25;;;;;;;6.95;5.65;;;;;;;7.13;45.21;99285.85;2372349;81;25648;-74
2021/12/04 01:22:46;;;;;;;11.35;5.83;;;;;;;7.12;45.20;99284.08;2383426;83;25712;-71
2021/12/04 01:26:12;;;;;;;11.90;6.30;;;;;;;7.09;45.14;99272.83;2346268;83;25661;-75
2021/12/04 01:29:46;;;;;;;9.38;5.90;;;;;;;7.09;45.08;99270.23;2334001;83;25335;-73
2021/12/04 01:33:10;;;;;;;10.90;6.08;;;;;;;7.07;44.99;99265.44;2336247;84;25678;-72
2021/12/04 01:36:31;;;;;;;11.20;6.53;;;;;;;7.04;44.94;99256.73;2337848;84;25602;-71
2021/12/04 01:40:06;;;;;;;10.03;5.78;;;;;;;7.02;44.89;99256.71;2335819;84;26155;-71
2021/12/04 01:47:21;;;;;;;9.45;6.15;;;;;;;7.00;44.78;99251.91;2188709;89;26116;-71
2021/12/04 01:50:45;;;;;;;8.93;6.45;;;;;;;7.00;44.75;99248.02;2188695;89;25864;-72
2021/12/04 01:54:08;;;;;;;8.93;6.25;;;;;;;6.99;44.72;99255.35;2188381;90;25799;-72
2021/12/04 01:57:31;;;;;;;9.05;5.87;;;;;;;6.97;44.67;99247.96;2189531;90;25727;-71
2021/12/04 02:00:53;;;;;;;7.25;5.78;;;;;;;6.96;44.65;99256.59;2189328;89;26508;-73
2021/12/04 02:04:14;;;;;;;10.25;6.53;;;;;;;6.96;44.61;99252.70;2188446;90;25724;-70
2021/12/04 02:08:00;;;;;;;11.08;6.60;;;;;;;6.93;44.52;99242.70;2186481;89;25763;-72
2021/12/04 02:11:27;;;;;;;11.73;6.15;;;;;;;6.91;44.48;99245.24;2184156;89;25675;-71
2021/12/04 02:14:58;;;;;;;11.12;6.78;;;;;;;6.91;44.44;99245.66;2189361;89;25932;-72
2021/12/04 02:18:25;;;;;;;11.93;7.22;;;;;;;6.89;44.44;99239.17;2187536;88;25754;-72
2021/12/04 02:21:46;;;;;;;12.85;7.35;;;;;;;6.87;44.41;99236.96;2231063;88;25711;-71
2021/12/04 02:25:09;;;;;;;11.97;7.80;;;;;;;6.83;44.36;99224.37;2353002;83;25686;-71
2021/12/04 02:28:30;;;;;;;12.98;7.47;;;;;;;6.83;44.32;99228.69;2382670;82;25692;-71
2021/12/04 02:31:56;;;;;;;11.75;7.87;;;;;;;6.80;44.29;99223.44;2382730;83;25669;-70
2021/12/04 02:35:18;;;;;;;12.03;6.85;;;;;;;6.79;44.27;99221.70;2383085;82;25658;-71
2021/12/04 02:38:40;;;;;;;9.30;6.55;;;;;;;6.76;44.27;99220.34;2380878;82;25368;-71
2021/12/04 02:42:05;;;;;;;11.20;7.50;;;;;;;6.73;44.18;99212.51;2361466;83;25671;-71
2021/12/04 02:45:26;;;;;;;19.60;8.30;;;;;;;6.71;44.15;99209.88;2382440;83;25665;-71
2021/12/04 02:48:47;;;;;;;12.90;8.10;;;;;;;6.69;44.15;99210.28;2382840;83;25550;-71
2021/12/04 02:52:11;;;;;;;11.43;7.63;;;;;;;6.66;44.14;99209.34;2379850;83;25842;-71
2021/12/04 02:55:32;;;;;;;10.08;6.67;;;;;;;6.65;44.13;99202.39;2382331;83;25651;-71
2021/12/04 02:59:00;;;;;;;15.75;7.95;;;;;;;6.63;44.09;99196.78;2380718;83;26223;-71
2021/12/04 03:02:22;;;;;;;15.88;8.43;;;;;;;6.61;44.05;99191.11;2382118;82;25586;-71
2021/12/04 03:06:02;;;;;;;14.03;8.13;;;;;;;6.58;44.05;99197.12;2378898;83;25737;-71
2021/12/04 03:09:15;;;;;;;15.20;8.40;;;;;;;6.55;44.04;99187.13;2378766;81;25573;-71
2021/12/04 03:12:38;;;;;;;14.95;8.43;;;;;;;6.55;44.02;99191.88;2383107;83;25673;-71
2021/12/04 03:15:59;;;;;;;15.25;9.68;;;;;;;6.54;44.05;99182.77;2383240;82;25594;-71
2021/12/04 03:19:20;;;;;;;14.10;8.43;;;;;;;6.53;44.01;99181.02;2369845;81;25682;-71
2021/12/04 03:22:42;;;;;;;18.27;9.40;;;;;;;6.53;44.04;99188.80;2338202;84;25622;-71
2021/12/04 03:26:08;;;;;;;15.65;9.35;;;;;;;6.53;44.04;99184.91;2338168;84;25567;-70
2021/12/04 03:29:29;;;;;;;16.52;10.03;;;;;;;6.53;44.01;99179.73;2337306;84;25213;-70
2021/12/04 03:43:15;;;;;;;12.95;9.15;;;;;;;6.51;43.98;99168.45;2338126;84;25587;-71
2021/12/04 03:46:37;;;;;;;24.55;11.08;;;;;;;6.50;43.94;99163.70;2335464;84;25247;-71
2021/12/04 03:49:58;;;;;;;18.98;10.43;;;;;;;6.49;43.94;99152.04;2338255;84;25984;-70
2021/12/04 03:53:19;;;;;;;18.90;10.00;;;;;;;6.48;43.93;99144.70;2338716;84;25671;-71
2021/12/04 03:56:40;;;;;;;20.07;10.67;;;;;;;6.46;43.91;99137.31;2338034;84;25178;-76
2021/12/04 04:00:04;;;;;;;20.10;10.87;;;;;;;6.46;43.94;99134.72;2338327;83;25735;-72
2021/12/04 04:03:27;;;;;;;20.32;10.32;;;;;;;6.47;43.93;99123.94;2337906;83;25615;-72
2021/12/04 04:06:48;;;;;;;20.70;11.40;;;;;;;6.46;43.94;99125.66;2336862;84;25675;-72
2021/12/04 04:10:10;;;;;;;18.90;11.47;;;;;;;6.48;43.98;99127.88;2337760;83;25654;-73
2021/12/04 04:13:31;;;;;;;17.82;10.38;;;;;;;6.47;43.98;99129.98;2337143;84;25677;-71
2021/12/04 04:16:56;;;;;;;19.60;11.28;;;;;;;6.48;43.99;99124.38;2338268;83;25205;-71
2021/12/04 04:20:23;;;;;;;17.57;10.28;;;;;;;6.47;44.00;99122.64;2346754;82;26381;-72
2021/12/04 04:23:44;;;;;;;20.88;10.95;;;;;;;6.47;44.03;99128.69;2358029;83;25671;-74
2021/12/04 04:27:06;;;;;;;20.80;11.08;;;;;;;6.47;44.00;99117.47;2356980;83;25700;-72
2021/12/04 04:30:27;;;;;;;21.33;10.63;;;;;;;6.45;44.04;99114.00;2358130;83;25689;-72
2021/12/04 04:33:58;;;;;;;20.90;10.72;;;;;;;6.44;44.06;99100.16;2355103;83;25755;-71
2021/12/04 05:13:45;;;;;;;17.10;10.35;;;;;;;6.44;44.23;99083.75;2358619;83;25663;-71
2021/12/04 05:17:16;;;;;;;23.27;11.05;;;;;;;6.42;44.25;99085.03;2358331;82;25709;-72
2021/12/04 05:20:40;;;;;;;;;;;;;;;6.42;44.25;99078.56;2360405;83;25740;-72
2021/12/04 05:24:01;;;;;;;20.23;10.60;;;;;;;6.41;44.24;99072.91;2357322;83;25595;-71
2021/12/04 05:27:22;;;;;;;22.03;10.83;;;;;;;6.42;44.27;99071.22;2358625;83;25664;-72
2021/12/04 05:30:45;;;;;;;21.17;11.00;;;;;;;6.42;44.30;99075.97;2358398;83;25335;-72
2021/12/04 05:34:06;;;;;;;20.32;10.05;;;;;;;6.44;44.29;99066.92;2358530;83;25657;-72
2021/12/04 05:37:27;;;;;;;18.27;10.23;;;;;;;6.44;44.29;99066.92;2358492;83;26283;-72
2021/12/04 05:40:48;;;;;;;24.07;10.58;;;;;;;6.46;44.30;99063.53;2357887;83;25712;-70
2021/12/04 05:44:10;;;;;;;16.75;10.13;;;;;;;6.47;44.31;99064.40;2357702;83;25657;-71
2021/12/04 05:47:46;;;;;;;20.00;10.85;;;;;;;6.46;44.30;99055.77;2356560;83;25721;-71
2021/12/04 05:51:30;;;;;;;20.55;10.28;;;;;;;6.47;44.33;99051.03;2335742;83;25671;-72
2021/12/04 05:55:08;;;;;;;16.87;9.48;;;;;;;6.47;44.30;99048.86;2356612;83;25647;-72
2021/12/04 05:58:28;;;;;;;13.28;8.73;;;;;;;6.46;44.30;99045.41;2356027;83;26325;-71
2021/12/04 06:01:49;;;;;;;14.65;8.63;;;;;;;6.47;44.31;99043.27;2358406;83;25659;-69
2021/12/04 06:05:11;;;;;;;16.20;8.50;;;;;;;6.46;44.31;99044.12;2358594;83;25651;-76
2021/12/04 06:08:32;;;;;;;13.98;8.85;;;;;;;6.47;44.30;99041.97;2358539;83;25589;-76
2021/12/04 06:11:54;;;;;;;14.28;7.95;;;;;;;6.49;44.31;99035.54;2358597;83;26401;-71
2021/12/04 06:15:15;;;;;;;17.02;8.75;;;;;;;6.51;44.32;99035.13;2358522;83;25586;-72
2021/12/04 06:19:12;;;;;;;15.57;8.67;;;;;;;6.50;44.29;99040.73;2357926;82;25689;-71
2021/12/04 06:22:38;;;;;;;14.40;7.35;;;;;;;6.52;44.31;99041.64;2339906;83;25847;-75
2021/12/04 06:26:11;;;;;;;13.03;8.13;;;;;;;6.52;44.31;99034.30;2337373;84;25613;-72
2021/12/04 06:29:32;;;;;;;13.45;8.05;;;;;;;6.55;44.32;99042.13;2336660;83;25608;-71
2021/12/04 06:32:55;;;;;;;17.65;9.03;;;;;;;6.56;44.30;99043.87;2338138;84;25638;-71
2021/12/04 06:36:16;;;;;;;16.97;7.83;;;;;;;6.59;44.33;99060.75;2338518;84;25808;-76
2021/12/04 06:39:37;;;;;;;15.98;8.03;;;;;;;6.60;44.31;99068.53;2338686;84;25706;-71
2021/12/04 06:43:00;;;;;;;11.87;7.70;;;;;;;6.61;44.27;99070.30;2338094;83;26281;-69
2021/12/04 06:46:23;;;;;;;17.98;8.15;;;;;;;6.63;44.22;99061.25;2338302;84;25719;-74
2021/12/04 06:49:54;;;;;;;13.78;6.95;;;;;;;6.65;44.24;99062.16;2337649;84;26118;-69
2021/12/04 06:56:45;;;;;;;9.55;6.87;;;;;;;6.67;44.15;99057.00;2336356;84;25571;-71
2021/12/04 07:00:10;;;;;;;10.00;6.67;;;;;;;6.66;44.12;99055.27;2333893;82;25644;-75
2021/12/04 07:03:35;;;;;;;14.20;7.15;;;;;;;6.67;44.09;99062.17;2314452;84;25748;-71
2021/12/04 07:06:56;;;;;;;9.55;6.72;;;;;;;6.69;44.04;99063.95;2337313;84;25162;-71
2021/12/04 07:10:17;;;;;;;10.03;6.53;;;;;;;6.71;44.02;99063.55;2335385;83;25658;-72
2021/12/04 07:13:41;;;;;;;12.53;6.65;;;;;;;6.73;44.00;99055.82;2336903;84;25738;-71
2021/12/04 07:17:09;;;;;;;12.35;6.70;;;;;;;6.74;43.95;99061.02;2337937;83;25625;-71
2021/12/04 07:20:37;;;;;;;7.83;5.75;;;;;;;6.78;43.94;99056.75;2340310;82;26386;-72
2021/12/04 07:23:58;;;;;;;9.30;6.30;;;;;;;6.79;43.91;99053.34;2356179;83;25646;-71
2021/12/04 07:27:19;;;;;;;13.58;6.50;;;;;;;6.81;43.86;99055.09;2357312;83;25703;-71
2021/12/04 07:30:42;;;;;;;10.48;6.15;;;;;;;6.83;43.86;99056.43;2358249;83;25208;-71
2021/12/04 07:34:28;;;;;;;;;;;;;;;;;;;;;
2021/12/04 07:37:50;;;;;;;13.80;6.55;;;;;;;6.90;43.79;99055.69;2352481;83;26176;-71
2021/12/04 07:41:22;;;;;;;9.27;6.37;;;;;;;6.92;43.79;99059.19;2356310;83;25676;-71
2021/12/04 07:44:47;;;;;;;9.98;5.87;;;;;;;6.95;43.78;99059.63;2353416;83;25689;-71
2021/12/04 07:48:11;;;;;;;9.15;5.33;;;;;;;6.98;43.77;99052.78;2356122;83;25733;-72
2021/12/04 07:51:33;;;;;;;9.28;5.78;;;;;;;7.01;43.77;99050.67;2317370;85;25657;-71
2021/12/04 07:54:54;;;;;;;5.92;4.72;;;;;;;7.03;43.76;99052.45;2318446;85;25767;-70
2021/12/04 07:58:15;;;;;;;10.93;5.33;;;;;;;7.08;43.72;99049.49;2303699;84;25781;-71
2021/12/04 08:02:25;;;;;;;6.22;4.97;;;;;;;7.10;43.71;99046.52;2277868;84;25859;-72
2021/12/04 08:06:17;;;;;;;6.35;5.55;;;;;;;7.14;43.67;99047.86;2279409;84;26404;-72
2021/12/04 08:09:47;;;;;;;7.12;5.40;;;;;;;7.19;43.68;99048.80;2291503;84;25653;-72
2021/12/04 08:13:11;;;;;;;8.98;5.35;;;;;;;7.22;43.61;99057.91;2284522;84;25938;-72
2021/12/04 08:16:49;;;;;;;11.35;4.45;;;;;;;7.24;43.63;99044.56;2311807;83;25625;-72
2021/12/04 08:20:13;;;;;;;9.28;5.37;;;;;;;7.26;43.61;99049.36;2321575;83;25997;-72
2021/12/04 08:23:34;;;;;;;10.88;4.97;;;;;;;7.28;43.59;99047.22;2329651;83;25736;-71
2021/12/04 08:26:57;;;;;;;7.03;4.93;;;;;;;7.32;43.55;99044.25;2334317;83;25861;-71
2021/12/04 08:30:24;;;;;;;9.28;5.83;;;;;;;7.34;43.52;99043.86;2366504;81;25705;-70
2021/12/04 08:33:49;;;;;;;7.45;5.65;;;;;;;7.38;43.62;99043.05;2387344;82;25662;-70
2021/12/04 08:37:28;;;;;;;9.23;5.75;;;;;;;7.43;43.57;99040.11;2384600;82;25508;-74
2021/12/04 08:40:56;;;;;;;9.10;5.17;;;;;;;7.49;43.54;99045.79;2385276;82;25975;-71
2021/12/04 08:44:19;;;;;;;9.13;5.72;;;;;;;7.54;43.55;99033.34;2384228;82;26209;-69
2021/12/04 08:47:41;;;;;;;9.00;4.95;;;;;;;7.58;43.52;99028.64;2385571;81;25680;-70
2021/12/04 08:51:06;;;;;;;9.48;4.92;;;;;;;7.63;43.58;99030.03;2385505;82;26388;-71
2021/12/04 08:54:29;;;;;;;8.03;5.30;;;;;;;7.67;43.58;99020.13;2341861;83;25705;-71
2021/12/04 08:57:51;;;;;;;10.28;5.55;;;;;;;7.73;43.46;99024.11;2334307;84;25712;-70
2021/12/04 09:05:31;;;;;;;6.20;4.37;;;;;;;7.86;43.34;99023.81;2137040;91;25807;-70
2021/12/04 09:09:08;;;;;;;6.33;4.30;;;;;;;7.98;43.18;99014.03;2139990;92;25773;-69
2021/12/04 09:12:30;;;;;;;5.87;4.60;;;;;;;8.06;43.06;99014.98;2132446;91;26023;-72
2021/12/04 09:16:00;;;;;;;6.53;5.12;;;;;;;8.14;42.97;99015.95;2134002;91;25439;-69
2021/12/04 09:19:23;;;;;;;6.62;4.78;;;;;;;8.17;42.92;99022.91;2131263;91;25757;-72
2021/12/04 09:23:40;;;;;;;5.95;4.15;;;;;;;8.17;42.88;99017.29;2122210;90;25811;-71
2021/12/04 09:27:21;;;;;;;7.28;4.85;;;;;;;8.15;42.84;99002.55;2116596;90;26299;-73
2021/12/04 10:15:08;;;;;;;6.33;4.53;;;;;;;8.45;48.34;98983.42;2158318;90;25718;-77
2021/12/04 10:32:59;;;;;;;5.42;4.30;;;;;;;8.57;47.22;98967.50;2163233;84;25765;-76
2021/12/04 10:36:38;;;;;;;9.13;4.25;;;;;;;8.63;46.94;98960.62;2305024;83;25886;-71
2021/12/04 10:40:23;;;;;;;9.05;4.28;;;;;;;8.69;46.66;98961.98;2334614;78;25700;-72
2021/12/04 10:44:31;;;;;;;5.65;4.62;;;;;;;8.75;46.37;98963.78;2246731;86;25576;-77
2021/12/04 10:48:26;;;;;;;5.85;4.58;;;;;;;8.81;46.07;98951.23;2266364;86;25565;-74
2021/12/04 11:19:07;;;;;;;6.45;5.10;;;;;;;8.69;43.82;98923.02;2315201;84;25718;-72
2021/12/04 11:23:05;;;;;;;6.37;5.85;;;;;;;8.75;43.82;98920.47;2275784;85;25580;-71
2021/12/04 11:49:35;;;;;;;7.47;5.42;;;;;;;8.75;42.18;98923.07;2250856;87;25854;-72
2021/12/04 11:53:00;;;;;;;11.70;5.97;;;;;;;8.90;44.00;98926.63;2138444;91;25659;-74
2021/12/04 11:56:37;;;;;;;13.18;6.95;;;;;;;9.03;44.03;98918.05;2138383;91;25457;-75
2021/12/04 12:00:46;;;;;;;8.95;5.97;;;;;;;9.11;43.92;98927.19;2113625;91;25618;-75
2021/12/04 12:04:12;;;;;;;10.80;5.62;;;;;;;9.15;43.86;98922.04;2103356;92;25722;-74
2021/12/04 12:07:44;;;;;;;10.23;6.10;;;;;;;9.18;43.76;98924.66;2101355;93;25770;-73
2021/12/04 12:15:03;;;;;;;8.80;6.33;;;;;;;9.16;43.68;98915.11;2066739;93;26233;-75
2021/12/04 12:19:15;;;;;;;8.57;5.70;;;;;;;9.13;43.58;98915.95;2092712;92;25597;-72
2021/12/04 12:39:09;;;;;;;10.68;6.95;;;;;;;11.03;55.17;98916.80;2116486;91;25692;-71
2021/12/04 12:42:44;;;;;;;10.40;7.30;;;;;;;10.78;51.52;98906.85;2198110;87;26073;-72
2021/12/04 12:50:46;;;;;;;10.30;7.20;;;;;;;10.06;48.83;98904.19;2250807;85;26113;-72
2021/12/04 12:54:12;;;;;;;11.18;7.35;;;;;;;9.77;48.13;98906.70;2256473;86;25733;-72
2021/12/04 12:57:58;;;;;;;11.73;6.70;;;;;;;9.63;47.55;98907.96;2273806;84;25543;-74
2021/12/04 13:14:46;;;;;;;11.78;8.78;;;;;;;8.96;44.57;98899.39;2252020;84;25674;-70
2021/12/04 13:18:47;;;;;;;15.13;9.40;;;;;;;8.81;44.00;98897.57;2301783;85;25749;-72
2021/12/04 13:22:42;;;;;;;23.77;10.82;;;;;;;8.67;43.70;98894.88;2295050;84;25747;-71
2021/12/04 13:26:23;;;;;;;15.90;10.08;;;;;;;8.57;43.38;98896.06;2326988;83;25780;-72
2021/12/04 13:30:16;;;;;;;16.20;9.13;;;;;;;8.42;43.11;98889.91;2331625;84;26319;-70
2021/12/04 13:33:39;;;;;;;22.90;9.43;;;;;;;8.31;42.97;98892.81;2261448;86;26292;-75
2021/12/04 13:37:12;;;;;;;10.90;8.50;;;;;;;8.23;42.77;98895.35;2235588;85;26298;-72
2021/12/04 13:40:58;;;;;;;11.43;8.53;;;;;;;8.17;42.65;98889.23;2271621;85;26557;-71
2021/12/04 13:47:59;;;;;;;16.02;9.45;;;;;;;8.04;42.79;98902.52;2143268;89;25791;-71
2021/12/04 13:52:31;;;;;;;17.92;8.33;;;;;;;8.11;42.84;98908.63;2132047;90;26175;-71
2021/12/04 13:56:25;;;;;;;10.98;8.33;;;;;;;8.18;42.97;98900.91;2157097;88;26130;-73
2021/12/04 14:00:03;;;;;;;11.38;8.10;;;;;;;8.24;43.11;98900.97;2156335;89;26078;-76
2021/12/04 14:04:03;;;;;;;9.23;7.95;;;;;;;8.28;43.20;98907.06;2161401;91;25540;-71
2021/12/04 14:07:25;;;;;;;12.73;9.28;;;;;;;8.26;43.36;98904.44;2162065;91;25834;-70
2021/12/04 14:11:01;;;;;;;10.30;7.80;;;;;;;8.28;43.50;98909.66;2182286;89;25710;-71
2021/12/04 14:14:27;;;;;;;9.83;7.80;;;;;;;8.27;43.61;98915.28;2192706;88;25620;-71
2021/12/04 14:18:22;;;;;;;14.80;7.78;;;;;;;8.31;44.45;98915.31;2196376;89;25730;-70
2021/12/04 14:22:02;;;;;;;13.95;7.80;;;;;;;8.31;44.64;98908.39;2092375;94;25984;-75
2021/12/04 14:25:26;;;;;;;12.75;8.30;;;;;;;8.33;44.74;98913.59;2126545;91;26318;-70
2021/12/04 14:28:47;;;;;;;10.93;7.60;;;;;;;8.31;44.78;98907.53;2162945;89;26193;-71
2021/12/04 14:32:25;;;;;;;12.60;7.57;;;;;;;8.27;44.88;98924.38;2175533;89;25664;-70
2021/12/04 14:36:13;;;;;;;11.35;7.72;;;;;;;8.24;44.92;98920.45;2094294;93;26138;-71
2021/12/04 14:39:52;;;;;;;9.68;7.40;;;;;;;8.22;45.00;98929.06;2102074;93;26190;-71
2021/12/04 14:43:28;;;;;;;;;;;;;;;;;;;;;
2021/12/04 14:46:56;;;;;;;9.63;7.72;;;;;;;8.04;45.06;98907.70;2094580;92;26081;-69
2021/12/04 14:50:25;;;;;;;11.88;7.40;;;;;;;8.15;45.31;98922.08;2103913;92;25822;-70
2021/12/04 14:53:59;;;;;;;10.45;7.50;;;;;;;8.12;45.39;98932.42;2075083;95;25867;-70
2021/12/04 14:57:28;;;;;;;9.83;7.55;;;;;;;8.09;45.50;98936.28;2075197;95;25813;-71
2021/12/04 15:01:07;;;;;;;14.93;6.75;;;;;;;8.26;48.90;98934.73;2076469;92;30996;-70
2021/12/04 15:04:48;;;;;;;11.93;6.67;;;;;;;8.28;48.97;98933.02;2071923;93;26037;-74
2021/12/04 15:08:29;;;;;;;10.32;7.10;;;;;;;8.25;49.18;98931.70;2082929;92;26317;-70
2021/12/04 15:11:51;;;;;;;10.53;7.47;;;;;;;8.23;49.42;98934.29;2173747;88;25738;-71
2021/12/04 15:15:40;;;;;;;10.78;7.90;;;;;;;8.20;49.60;98934.66;2191955;87;25824;-78
2021/12/04 15:23:29;;;;;;;13.78;8.95;;;;;;;8.11;49.57;98933.30;2255818;84;25744;-71
2021/12/04 15:26:59;;;;;;;19.57;9.93;;;;;;;8.10;50.19;98928.53;2331860;84;25726;-78
2021/12/04 15:30:33;;;;;;;14.50;10.05;;;;;;;7.92;49.62;98920.11;2324228;83;25702;-76
2021/12/04 15:33:56;;;;;;;19.73;10.43;;;;;;;7.71;49.60;98912.09;2332549;82;26174;-71
2021/12/04 15:45:54;;;;;;;17.05;10.25;;;;;;;7.46;49.81;98929.97;2260863;85;25752;-71
2021/12/04 15:53:15;;;;;;;20.15;11.15;;;;;;;7.34;50.01;98937.14;2197010;87;26457;-77
2021/12/04 15:56:54;;;;;;;17.40;10.30;;;;;;;7.28;50.25;98946.55;2251963;87;25862;-71
2021/12/04 16:00:16;;;;;;;15.90;10.03;;;;;;;7.30;50.46;98948.75;2257770;87;25739;-78
2021/12/04 16:03:56;;;;;;;13.68;9.30;;;;;;;7.33;50.50;98948.80;2257630;87;25811;-71
2021/12/04 16:07:29;;;;;;;;;;;;;;;7.29;50.53;98943.14;2212697;88;25863;-71
2021/12/04 16:11:04;;;;;;;13.43;10.48;;;;;;;7.30;50.60;98961.72;2240028;86;26221;-70
2021/12/04 16:14:36;;;;;;;18.60;10.80;;;;;;;7.24;50.57;98963.79;2274925;86;25695;-71
2021/12/04 16:17:58;;;;;;;17.10;11.33;;;;;;;7.20;50.58;98952.08;2164177;90;26515;-73
2021/12/04 16:21:19;;;;;;;17.73;10.40;;;;;;;7.18;50.57;98959.80;2197684;89;25864;-78
2021/12/04 16:24:50;;;;;;;16.48;10.40;;;;;;;7.16;50.57;98964.12;2177661;90;26146;-74
2021/12/04 16:35:42;;;;;;;15.78;10.68;;;;;;;7.12;50.58;98963.63;2145339;90;25790;-79
2021/12/04 16:39:07;;;;;;;13.10;10.18;;;;;;;7.07;50.63;98969.16;2145649;90;25814;-71
2021/12/04 16:42:31;;;;;;;16.10;11.03;;;;;;;7.09;50.67;98969.63;2178358;87;26125;-75
2021/12/04 17:01:31;;;;;;;14.53;10.00;;;;;;;7.31;50.47;98997.15;2524640;76;25492;-71
2021/12/04 17:04:56;;;;;;;14.68;9.33;;;;;;;7.27;50.45;99002.72;2455842;78;25245;-71
2021/12/04 17:08:22;;;;;;;17.37;11.20;;;;;;;7.30;50.42;99010.97;2464598;78;26250;-78
2021/12/04 17:11:52;;;;;;;15.28;10.75;;;;;;;7.30;50.35;99005.35;2461752;78;26370;-72
2021/12/04 17:15:17;;;;;;;12.73;9.70;;;;;;;7.34;50.35;98998.49;2477825;78;25293;-77
2021/12/04 17:18:51;;;;;;;15.98;10.65;;;;;;;7.35;50.32;98996.34;2463171;79;25654;-72
2021/12/04 17:22:14;;;;;;;19.15;11.33;;;;;;;7.38;50.29;98990.33;2437568;78;25797;-76
2021/12/04 17:25:37;;;;;;;15.15;10.08;;;;;;;7.39;50.25;98982.59;2420953;81;25958;-74
2021/12/04 17:29:13;;;;;;;46.05;9.08;;;;;;;7.41;50.23;98970.94;2436535;79;25608;-70
2021/12/04 17:32:35;;;;;;;19.10;9.40;;;;;;;7.76;54.46;98970.97;2473060;78;26365;-73
2021/12/04 17:36:05;;;;;;;15.15;9.25;;;;;;;7.91;53.74;98970.70;2486723;78;25651;-70
2021/12/04 17:39:31;;;;;;;14.33;8.40;;;;;;;7.92;53.62;98961.62;2461983;78;26286;-75
2021/12/04 17:42:55;;;;;;;14.58;9.48;;;;;;;7.92;53.61;98964.22;2463053;80;25679;-74
2021/12/04 17:46:21;;;;;;;13.43;8.53;;;;;;;7.87;53.54;98947.74;2425189;80;25679;-78
2021/12/04 17:49:49;;;;;;;12.80;8.78;;;;;;;7.87;53.53;98954.23;2469977;79;25620;-77
2021/12/04 17:53:13;;;;;;;12.47;9.08;;;;;;;7.86;53.51;98950.30;2443300;80;25573;-73
2021/12/04 17:57:14;;;;;;;14.28;9.00;;;;;;;7.84;53.43;98944.24;2422960;80;25640;-71
2021/12/04 18:00:41;;;;;;;16.00;9.50;;;;;;;7.84;53.29;98951.59;2439719;80;25608;-76
2021/12/04 18:04:26;;;;;;;;;;;;;;;;;;;;;
2021/12/04 18:07:41;;;;;;;15.55;10.03;;;;;;;7.81;52.91;98953.72;2429930;80;25502;-76
2021/12/04 18:11:06;;;;;;;11.10;8.60;;;;;;;7.83;52.76;98952.86;2435943;80;25708;-80
2021/12/04 18:14:42;;;;;;;10.38;9.28;;;;;;;7.81;52.60;98945.08;2464730;78;25549;-78
2021/12/04 18:22:35;;;;;;;13.10;8.30;;;;;;;7.80;52.31;98950.70;2447058;80;25612;-79
2021/12/04 18:26:15;;;;;;;12.78;9.08;;;;;;;7.82;52.15;98951.99;2427848;78;26380;-78
2021/12/04 18:29:49;;;;;;;12.95;9.30;;;;;;;7.78;52.03;98956.28;2468094;78;25668;-75
2021/12/04 18:33:13;;;;;;;13.60;9.18;;;;;;;7.79;51.93;98955.84;2427685;78;25684;-78
2021/12/04 18:36:37;;;;;;;22.27;9.00;;;;;;;7.75;51.83;98955.38;2454947;79;25673;-73
2021/12/04 18:40:33;;;;;;;11.93;9.10;;;;;;;7.77;51.74;98955.84;2324476;81;26211;-73
2021/12/04 18:44:01;;;;;;;13.35;9.33;;;;;;;7.73;51.66;98944.13;2316935;84;25799;-69
2021/12/04 18:47:56;;;;;;;;;;;;;;;;;;;;;
2021/12/04 18:51:18;;;;;;;11.80;9.63;;;;;;;7.71;51.48;98950.58;2299832;84;25726;-71
2021/12/04 18:54:54;;;;;;;13.68;10.00;;;;;;;7.69;51.38;98954.00;2302431;85;25670;-76
2021/12/04 18:58:39;;;;;;;12.68;10.30;;;;;;;7.68;51.33;98963.50;2300728;85;25804;-73
2021/12/04 19:02:24;;;;;;;14.20;10.15;;;;;;;7.67;51.22;98964.80;2268741;85;25914;-71
2021/12/04 19:09:59;;;;;;;14.15;10.35;;;;;;;7.65;50.99;98950.92;2257673;87;25753;-71
2021/12/04 19:13:28;;;;;;;16.73;10.10;;;;;;;7.63;50.90;98959.09;2271458;85;25675;-71
2021/12/04 19:17:06;;;;;;;15.98;10.35;;;;;;;7.62;50.80;98951.75;2266524;85;25745;-71
2021/12/04 19:20:37;;;;;;;18.20;10.50;;;;;;;7.59;50.71;98951.71;2278834;85;25860;-72
2021/12/04 19:24:06;;;;;;;18.77;11.12;;;;;;;7.60;50.63;98955.20;2166592;91;25860;-79
2021/12/04 19:27:29;;;;;;;13.95;10.55;;;;;;;7.58;50.57;98944.36;2168182;91;25305;-72
2021/12/04 19:31:11;;;;;;;15.65;11.15;;;;;;;7.58;50.49;98946.95;2189059;89;25963;-72
2021/12/04 19:34:44;;;;;;;15.68;10.65;;;;;;;7.58;50.42;98952.14;2163089;89;25810;-72
2021/12/04 19:53:34;;;;;;;16.12;10.03;;;;;;;7.52;50.16;98948.59;2260626;86;26165;-70
2021/12/04 19:57:12;;;;;;;20.35;11.75;;;;;;;7.51;50.05;98947.73;2196358;88;26425;-71
2021/12/04 20:00:48;;;;;;;18.92;11.75;;;;;;;7.49;49.97;98936.89;2205319;88;25769;-74
2021/12/04 20:15:40;;;;;;;21.17;13.35;;;;;;;7.44;49.74;98937.27;2188587;88;25872;-74
2021/12/04 20:19:07;;;;;;;21.50;13.58;;;;;;;7.45;49.64;98941.59;2223454;86;26415;-71
2021/12/04 20:22:27;;;;;;;23.25;14.10;;;;;;;7.42;49.58;98936.37;2292807;84;25867;-72
2021/12/04 20:25:56;;;;;;;20.65;12.73;;;;;;;7.41;49.54;98939.82;2294896;86;26400;-76
2021/12/04 21:51:08;;;;;;;26.17;14.65;;;;;;;7.34;48.43;98958.31;2337566;84;25649;-82
2021/12/04 21:54:36;;;;;;;22.62;15.23;;;;;;;7.32;48.38;98953.52;2329412;84;26061;-80
2021/12/04 22:09:46;;;;;;;28.77;15.32;;;;;;;7.26;48.30;98962.53;2318723;83;25722;-73
2021/12/04 22:17:09;;;;;;;28.00;15.88;;;;;;;7.24;48.22;98951.26;2194507;87;25821;-74
2021/12/04 23:01:04;;;;;;;27.58;16.67;;;;;;;7.13;48.66;98954.13;2322739;84;25631;-75
2021/12/04 23:33:55;;;;;;;30.40;17.90;;;;;;;6.92;48.14;98910.23;2263561;86;25628;-72
